Time;durP1;ratioP1;P1;durP2;ratioP2;P2;SDS_P1;SDS_P2;PMS_P1;PMS_P2;Temp;Humidity;BMP_temperature;BMP_pressure;BME280_temperature;BME280_humidity;BME280_pressure;Samples;Min_cycle;Max_cycle;Signal;HPM_P1;HPM_P2
2022/01/19 00:01:18;;;;;;;1.20;1.00;;;3.00;98.00;;;;;;5112543;28;20455;-67
2022/01/19 00:03:46;;;;;;;1.60;1.10;;;3.00;98.00;;;;;;5111155;28;20455;-67
2022/01/19 00:06:13;;;;;;;1.20;1.00;;;2.90;98.00;;;;;;5112047;28;20482;-67
2022/01/19 00:08:40;;;;;;;1.30;1.10;;;2.80;98.00;;;;;;5112418;28;20447;-67
2022/01/19 00:11:07;;;;;;;1.10;1.00;;;2.70;98.00;;;;;;5112304;28;20487;-67
2022/01/19 00:13:37;;;;;;;1.20;1.10;;;2.60;98.00;;;;;;5112354;28;20626;-67
2022/01/19 00:16:04;;;;;;;1.20;0.90;;;2.50;98.00;;;;;;5112265;28;20537;-67
2022/01/19 00:18:32;;;;;;;1.20;1.00;;;2.50;98.00;;;;;;5112169;28;20515;-67
2022/01/19 00:20:59;;;;;;;1.63;1.10;;;2.50;98.00;;;;;;5112376;28;20486;-67
2022/01/19 00:23:26;;;;;;;1.30;1.20;;;2.40;98.00;;;;;;5111011;28;20486;-67
2022/01/19 00:25:55;;;;;;;1.20;1.10;;;2.30;98.00;;;;;;5112349;28;20512;-67
2022/01/19 00:28:25;;;;;;;1.20;1.10;;;2.20;98.00;;;;;;5112508;28;20490;-67
2022/01/19 00:30:54;;;;;;;1.20;1.20;;;2.30;98.00;;;;;;5112184;28;20515;-67
2022/01/19 00:33:24;;;;;;;1.60;1.50;;;2.30;98.00;;;;;;5112075;28;20450;-67
2022/01/19 00:35:52;;;;;;;1.10;0.90;;;2.30;98.00;;;;;;5111593;28;20454;-67
2022/01/19 00:38:20;;;;;;;1.17;1.07;;;2.20;98.00;;;;;;5110351;28;20514;-67
2022/01/19 00:40:48;;;;;;;1.17;1.10;;;2.10;98.00;;;;;;5112119;28;21011;-67
2022/01/19 00:43:16;;;;;;;1.53;1.30;;;2.10;98.00;;;;;;5111671;28;20455;-67
2022/01/19 00:45:43;;;;;;;1.70;1.50;;;2.10;98.00;;;;;;5111715;28;20996;-67
2022/01/19 00:48:12;;;;;;;1.17;1.10;;;2.10;98.00;;;;;;5111798;28;21011;-67
2022/01/19 00:50:39;;;;;;;1.20;1.20;;;2.00;98.00;;;;;;5111969;28;20505;-67
2022/01/19 00:53:06;;;;;;;1.70;1.30;;;2.00;98.00;;;;;;5109816;28;20471;-67
2022/01/19 00:55:33;;;;;;;1.30;1.20;;;2.00;98.00;;;;;;5110675;28;20501;-67
2022/01/19 00:58:00;;;;;;;1.10;1.03;;;2.10;98.00;;;;;;5111763;28;20904;-67
2022/01/19 01:00:29;;;;;;;1.23;1.20;;;2.20;98.00;;;;;;5111752;28;20893;-67
2022/01/19 01:02:56;;;;;;;1.30;1.20;;;2.20;98.00;;;;;;5115312;28;20458;-67
2022/01/19 01:05:25;;;;;;;1.70;1.40;;;2.10;98.00;;;;;;5115802;28;20506;-67
2022/01/19 01:07:52;;;;;;;1.47;1.23;;;1.90;98.00;;;;;;5115270;28;20861;-67
2022/01/19 01:10:21;;;;;;;1.20;1.20;;;1.80;98.00;;;;;;5115639;28;20508;-67
2022/01/19 01:12:51;;;;;;;1.20;1.10;;;1.70;98.00;;;;;;5115767;28;20455;-67
2022/01/19 01:15:29;;;;;;;1.10;1.00;;;1.70;98.00;;;;;;5115520;28;20539;-67
2022/01/19 01:20:44;;;;;;;1.20;1.10;;;1.70;98.00;;;;;;5115520;28;20448;-67
2022/01/19 01:23:11;;;;;;;1.60;1.30;;;1.70;98.00;;;;;;5115428;28;20508;-67
2022/01/19 01:25:40;;;;;;;1.30;1.20;;;1.60;98.00;;;;;;5115223;28;20457;-67
2022/01/19 01:28:08;;;;;;;1.83;1.47;;;1.60;98.00;;;;;;5115470;28;20507;-67
2022/01/19 01:30:36;;;;;;;1.43;1.33;;;1.60;98.00;;;;;;5115136;28;20472;-67
2022/01/19 01:33:03;;;;;;;1.47;1.30;;;1.70;98.00;;;;;;5115345;28;20486;-67
2022/01/19 01:35:31;;;;;;;1.50;1.50;;;1.60;98.00;;;;;;5113943;28;20513;-67
2022/01/19 01:38:01;;;;;;;1.47;1.40;;;1.50;98.00;;;;;;5115196;28;20483;-67
2022/01/19 01:40:31;;;;;;;1.10;1.00;;;1.60;98.00;;;;;;5114999;28;20531;-67
2022/01/19 01:42:59;;;;;;;1.10;1.00;;;1.50;98.00;;;;;;5114886;28;20458;-67
2022/01/19 01:45:29;;;;;;;1.10;1.00;;;1.60;98.00;;;;;;5115123;28;20522;-67
2022/01/19 01:48:05;;;;;;;1.40;1.40;;;1.60;98.00;;;;;;5114973;28;20835;-67
2022/01/19 01:53:27;;;;;;;1.10;1.00;;;1.50;98.00;;;;;;5115276;28;20858;-66
2022/01/19 01:56:00;;;;;;;2.23;1.40;;;1.50;98.00;;;;;;5113998;28;20533;-66
2022/01/19 01:58:30;;;;;;;1.40;1.33;;;1.40;98.00;;;;;;5114307;28;20514;-67
2022/01/19 02:00:57;;;;;;;1.40;1.30;;;1.50;98.00;;;;;;5114299;28;21019;-67
2022/01/19 02:03:27;;;;;;;1.30;1.20;;;1.50;98.00;;;;;;5114522;28;20861;-67
2022/01/19 02:06:20;;;;;;;1.20;1.10;;;1.40;98.00;;;;;;5114663;28;20454;-67
2022/01/19 02:08:55;;;;;;;1.20;1.00;;;1.50;98.00;;;;;;5114371;28;20976;-67
2022/01/19 02:15:49;;;;;;;1.20;1.10;;;1.60;98.00;;;;;;5114532;28;20517;-67
2022/01/19 02:23:00;;;;;;;1.30;1.20;;;1.50;98.00;;;;;;5114349;28;20469;-67
2022/01/19 02:25:38;;;;;;;1.10;0.97;;;1.40;98.00;;;;;;5114084;28;20455;-67
2022/01/19 02:41:58;;;;;;;1.30;1.13;;;0.80;98.00;;;;;;5114018;28;20483;-67
2022/01/19 02:44:39;;;;;;;1.17;1.00;;;0.70;98.00;;;;;;5113688;28;20465;-67
2022/01/19 02:49:56;;;;;;;1.63;1.33;;;0.80;98.00;;;;;;5095392;28;20458;-67
2022/01/19 02:52:31;;;;;;;1.20;1.07;;;0.60;98.00;;;;;;5113889;28;20507;-67
2022/01/19 02:54:58;;;;;;;1.20;1.10;;;0.60;98.00;;;;;;5113643;28;20465;-67
2022/01/19 02:57:29;;;;;;;1.20;1.00;;;0.60;98.00;;;;;;5112492;28;20494;-67
2022/01/19 03:10:53;;;;;;;1.10;0.93;;;0.90;98.00;;;;;;5113695;28;20447;-67
2022/01/19 03:13:21;;;;;;;1.10;1.00;;;0.90;98.00;;;;;;5113572;28;20509;-67
2022/01/19 03:15:48;;;;;;;1.20;1.10;;;0.70;98.00;;;;;;5113248;28;20454;-67
2022/01/19 03:18:15;;;;;;;1.10;1.00;;;0.70;98.00;;;;;;5113616;28;20994;-66
2022/01/19 03:20:42;;;;;;;1.70;1.40;;;0.60;98.00;;;;;;5113095;28;20497;-67
2022/01/19 03:23:18;;;;;;;1.20;1.00;;;0.70;98.00;;;;;;5113402;28;20461;-67
2022/01/19 03:25:45;;;;;;;1.33;1.30;;;0.70;98.00;;;;;;5112730;28;20457;-66
2022/01/19 03:28:12;;;;;;;1.20;1.10;;;0.50;98.00;;;;;;5112936;28;20462;-67
2022/01/19 03:30:39;;;;;;;1.43;1.30;;;0.40;98.00;;;;;;5112679;28;20493;-67
2022/01/19 03:33:06;;;;;;;1.20;1.00;;;0.60;98.00;;;;;;5112837;28;20501;-66
2022/01/19 03:35:33;;;;;;;1.10;1.00;;;0.60;98.00;;;;;;5111630;28;20870;-67
2022/01/19 03:38:00;;;;;;;1.20;1.00;;;0.70;98.00;;;;;;5112223;28;20489;-67
2022/01/19 03:40:30;;;;;;;1.10;0.90;;;0.80;98.00;;;;;;5111552;28;21036;-67
2022/01/19 03:42:57;;;;;;;1.60;1.50;;;0.70;98.00;;;;;;5112487;28;20454;-67
2022/01/19 03:45:26;;;;;;;1.10;1.10;;;0.70;98.00;;;;;;5112636;28;20454;-67
2022/01/19 03:48:06;;;;;;;1.17;1.00;;;0.70;98.00;;;;;;5112610;28;20476;-67
2022/01/19 03:50:33;;;;;;;2.07;1.70;;;0.70;98.00;;;;;;5112534;28;20453;-66
2022/01/19 03:53:00;;;;;;;1.20;1.00;;;0.80;98.00;;;;;;5111346;28;20492;-67
2022/01/19 03:55:28;;;;;;;1.20;1.00;;;0.60;98.00;;;;;;5112248;28;20540;-67
2022/01/19 03:57:55;;;;;;;1.77;1.33;;;0.50;98.00;;;;;;5112582;28;20527;-67
2022/01/19 04:00:23;;;;;;;1.20;1.00;;;0.40;98.00;;;;;;5112597;28;20496;-67
2022/01/19 04:02:51;;;;;;;1.20;1.10;;;0.50;98.00;;;;;;5112371;28;20450;-66
2022/01/19 04:05:23;;;;;;;1.83;1.73;;;0.50;98.00;;;;;;5112300;28;20462;-66
2022/01/19 04:07:51;;;;;;;1.10;1.00;;;0.30;98.00;;;;;;5112512;28;20462;-67
2022/01/19 04:10:18;;;;;;;1.10;1.00;;;0.20;98.00;;;;;;5112194;28;20851;-67
2022/01/19 04:12:53;;;;;;;1.90;1.50;;;0.20;98.00;;;;;;5112276;28;20497;-67
2022/01/19 04:15:21;;;;;;;1.10;1.00;;;0.20;98.00;;;;;;5111335;28;20540;-66
2022/01/19 04:17:54;;;;;;;2.07;1.77;;;0.30;98.00;;;;;;5110732;28;20482;-67
2022/01/19 04:20:24;;;;;;;1.67;1.67;;;0.20;98.00;;;;;;5112247;28;20454;-66
2022/01/19 04:22:53;;;;;;;1.43;1.07;;;0.10;98.00;;;;;;5112371;28;20457;-66
2022/01/19 04:25:20;;;;;;;1.20;1.00;;;0.10;98.00;;;;;;5112111;28;20553;-66
2022/01/19 04:27:48;;;;;;;1.67;1.57;;;0.10;98.00;;;;;;5111919;28;20492;-67
2022/01/19 04:30:16;;;;;;;1.20;1.07;;;0.20;98.00;;;;;;5112091;28;20489;-67
2022/01/19 04:32:50;;;;;;;1.10;1.00;;;0.00;98.00;;;;;;5112280;28;20529;-67
2022/01/19 04:35:21;;;;;;;2.70;1.57;;;-0.10;98.00;;;;;;5112279;28;20454;-67
2022/01/19 04:38:46;;;;;;;2.23;1.10;;;-0.10;98.00;;;;;;5115802;28;20456;-67
2022/01/19 05:01:32;;;;;;;1.10;1.10;;;-0.30;98.00;;;;;;5116246;28;20437;-66
2022/01/19 05:03:17;;;;;;;1.60;1.50;;;-0.10;98.00;;;;;;5115900;28;20441;-67
2022/01/19 05:08:45;;;;;;;1.30;1.30;;;0.10;98.00;;;;;;5115705;28;20465;-67
2022/01/19 05:13:57;;;;;;;1.20;1.10;;;0.30;98.00;;;;;;5115442;28;20495;-67
2022/01/19 05:16:26;;;;;;;1.30;1.20;;;0.30;98.00;;;;;;5115538;28;20492;-67
2022/01/19 05:18:53;;;;;;;1.20;1.10;;;0.20;98.00;;;;;;5115283;28;20481;-66
2022/01/19 05:21:20;;;;;;;1.20;1.07;;;0.30;98.00;;;;;;5115817;28;20481;-67
2022/01/19 05:23:49;;;;;;;1.20;1.10;;;0.10;98.00;;;;;;5115233;28;20499;-66
2022/01/19 05:26:16;;;;;;;1.20;1.10;;;-0.10;98.00;;;;;;5115219;28;20524;-66
2022/01/19 05:28:43;;;;;;;1.47;1.37;;;-0.10;98.00;;;;;;5115330;28;20496;-66
2022/01/19 05:31:10;;;;;;;1.40;1.10;;;-0.20;98.00;;;;;;5114144;28;21194;-66
2022/01/19 05:33:40;;;;;;;1.20;1.00;;;-0.20;98.00;;;;;;5115195;28;20494;-66
2022/01/19 05:36:07;;;;;;;4.50;1.50;;;-0.10;98.00;;;;;;5115182;28;20565;-67
2022/01/19 05:38:34;;;;;;;1.10;1.00;;;0.00;98.00;;;;;;5114949;28;20517;-66
2022/01/19 05:41:01;;;;;;;1.57;1.40;;;0.20;98.00;;;;;;5114881;28;20453;-66
2022/01/19 05:43:30;;;;;;;1.10;1.10;;;0.30;98.00;;;;;;5115239;28;20456;-67
2022/01/19 05:45:57;;;;;;;1.20;1.00;;;0.30;98.00;;;;;;5114697;28;20532;-66
2022/01/19 05:48:25;;;;;;;1.10;1.00;;;0.40;98.00;;;;;;5115056;28;20470;-67
2022/01/19 05:50:53;;;;;;;1.20;1.10;;;0.50;98.00;;;;;;5097198;28;20958;-67
2022/01/19 05:53:21;;;;;;;2.47;1.70;;;0.70;98.00;;;;;;5115002;28;20492;-66
2022/01/19 05:55:48;;;;;;;1.20;1.00;;;0.70;98.00;;;;;;5114996;28;20457;-67
2022/01/19 05:58:15;;;;;;;1.50;1.40;;;0.80;98.00;;;;;;5114919;28;20964;-66
2022/01/19 06:00:42;;;;;;;1.10;1.10;;;0.90;98.00;;;;;;5114717;28;20516;-66
2022/01/19 06:03:09;;;;;;;1.10;1.00;;;0.90;98.00;;;;;;5114894;28;21131;-67
2022/01/19 06:05:37;;;;;;;1.37;1.30;;;0.80;98.00;;;;;;5114967;28;20490;-66
2022/01/19 06:08:17;;;;;;;1.20;1.10;;;0.80;98.00;;;;;;5114839;28;20550;-67
2022/01/19 06:10:45;;;;;;;1.10;1.10;;;0.80;98.00;;;;;;5114466;28;20498;-66
2022/01/19 06:13:15;;;;;;;1.50;1.33;;;0.70;98.00;;;;;;5114819;28;20889;-66
2022/01/19 06:15:44;;;;;;;1.60;1.30;;;0.80;98.00;;;;;;5114278;28;20445;-67
2022/01/19 06:18:11;;;;;;;1.20;1.00;;;0.80;98.00;;;;;;5114441;28;20449;-66
2022/01/19 06:20:43;;;;;;;2.43;1.63;;;0.70;98.00;;;;;;5114475;28;20936;-67
2022/01/19 06:23:12;;;;;;;1.87;1.07;;;0.60;98.00;;;;;;5114164;28;20489;-67
2022/01/19 06:25:39;;;;;;;2.37;1.60;;;0.70;98.00;;;;;;5114203;28;20545;-67
2022/01/19 06:28:06;;;;;;;1.10;1.00;;;0.70;98.00;;;;;;5114336;28;20461;-66
2022/01/19 06:30:34;;;;;;;1.63;1.47;;;0.80;98.00;;;;;;5113928;28;20485;-66
2022/01/19 06:33:01;;;;;;;1.77;1.70;;;0.80;98.00;;;;;;5113752;28;20450;-67
2022/01/19 06:35:28;;;;;;;1.60;1.60;;;0.70;98.00;;;;;;5113935;28;20932;-66
2022/01/19 06:37:55;;;;;;;1.10;1.00;;;0.80;98.00;;;;;;5113873;28;20541;-67
2022/01/19 06:40:25;;;;;;;1.10;1.10;;;0.80;98.00;;;;;;5114004;28;20513;-67
2022/01/19 06:42:54;;;;;;;1.30;1.20;;;0.80;98.00;;;;;;5113706;28;20453;-66
2022/01/19 06:45:22;;;;;;;1.17;1.07;;;0.80;98.00;;;;;;5113932;28;20462;-66
2022/01/19 06:47:50;;;;;;;1.70;1.57;;;0.80;98.00;;;;;;5112575;28;20548;-66
2022/01/19 06:50:19;;;;;;;1.50;1.37;;;0.60;98.00;;;;;;5113823;28;20542;-66
2022/01/19 06:52:47;;;;;;;1.20;1.20;;;0.70;98.00;;;;;;5113698;28;20449;-66
2022/01/19 06:55:15;;;;;;;1.40;1.30;;;0.80;98.00;;;;;;5113028;28;20597;-66
2022/01/19 06:57:45;;;;;;;1.10;1.00;;;0.70;98.00;;;;;;5112720;28;20490;-67
2022/01/19 07:00:14;;;;;;;3.57;1.67;;;0.90;98.00;;;;;;5111976;28;20504;-66
2022/01/19 07:02:41;;;;;;;1.63;1.30;;;1.00;98.00;;;;;;5113326;28;20462;-67
2022/01/19 07:05:09;;;;;;;1.10;1.00;;;0.90;98.00;;;;;;5113385;28;20489;-66
2022/01/19 07:07:38;;;;;;;1.10;1.10;;;1.00;98.00;;;;;;5113573;28;20504;-67
2022/01/19 07:10:07;;;;;;;1.20;1.20;;;1.10;98.00;;;;;;5113190;28;20461;-67
2022/01/19 07:12:35;;;;;;;1.30;1.30;;;1.20;98.00;;;;;;5113679;28;20466;-67
2022/01/19 07:15:05;;;;;;;1.87;1.73;;;1.10;98.00;;;;;;5113331;28;20489;-67
2022/01/19 07:17:32;;;;;;;2.20;1.83;;;1.10;98.00;;;;;;5113376;28;20478;-67
2022/01/19 07:20:00;;;;;;;1.10;1.00;;;1.00;98.00;;;;;;5113211;28;20489;-67
2022/01/19 07:22:27;;;;;;;1.33;1.33;;;1.00;98.00;;;;;;5113380;28;20920;-66
2022/01/19 07:24:54;;;;;;;1.10;1.00;;;1.10;98.00;;;;;;5113291;28;20859;-66
2022/01/19 07:27:21;;;;;;;1.10;1.10;;;1.00;98.00;;;;;;5113029;28;20503;-66
2022/01/19 07:29:48;;;;;;;1.30;1.20;;;1.00;98.00;;;;;;5113274;28;20489;-67
2022/01/19 07:32:17;;;;;;;1.67;1.63;;;1.00;98.00;;;;;;5113165;28;21175;-66
2022/01/19 07:34:44;;;;;;;1.20;1.07;;;1.00;98.00;;;;;;5113028;28;20518;-67
2022/01/19 07:37:11;;;;;;;1.10;1.00;;;1.20;98.00;;;;;;5112457;28;20961;-67
2022/01/19 07:39:38;;;;;;;1.93;1.30;;;1.00;98.00;;;;;;5112458;28;20494;-67
2022/01/19 07:42:06;;;;;;;1.37;1.37;;;1.00;98.00;;;;;;5112380;28;21345;-67
2022/01/19 07:44:33;;;;;;;1.10;1.10;;;1.10;98.00;;;;;;5112641;28;20488;-67
2022/01/19 07:47:00;;;;;;;1.10;1.00;;;1.10;98.00;;;;;;5112567;28;20517;-67
2022/01/19 07:49:28;;;;;;;1.43;1.23;;;1.20;98.00;;;;;;5112381;28;20498;-67
2022/01/19 07:51:55;;;;;;;3.10;1.30;;;1.20;98.00;;;;;;5112151;28;20503;-67
2022/01/19 07:54:22;;;;;;;1.60;1.40;;;1.20;98.00;;;;;;5112406;28;20861;-67
2022/01/19 07:56:49;;;;;;;1.30;1.20;;;1.20;98.00;;;;;;5112859;28;20452;-67
2022/01/19 07:59:17;;;;;;;1.20;1.07;;;1.20;98.00;;;;;;5112021;28;20549;-67
2022/01/19 08:01:45;;;;;;;1.20;1.10;;;1.00;98.00;;;;;;5112470;28;20449;-67
2022/01/19 08:04:12;;;;;;;1.37;1.37;;;1.00;98.00;;;;;;5111041;28;20509;-67
2022/01/19 08:06:40;;;;;;;2.27;2.07;;;1.00;98.00;;;;;;5111145;28;20983;-67
2022/01/19 08:09:08;;;;;;;1.53;1.43;;;1.00;98.00;;;;;;5112187;28;20987;-67
2022/01/19 08:11:35;;;;;;;1.40;1.30;;;1.00;98.00;;;;;;5112472;28;20455;-67
2022/01/19 08:14:03;;;;;;;1.23;1.20;;;0.90;98.00;;;;;;5112334;28;20450;-66
2022/01/19 08:16:30;;;;;;;1.10;1.00;;;1.00;98.00;;;;;;5111382;28;20457;-66
2022/01/19 08:18:57;;;;;;;1.43;1.30;;;1.00;98.00;;;;;;5110470;28;20493;-67
2022/01/19 08:21:24;;;;;;;1.77;1.47;;;1.00;98.00;;;;;;5111747;28;20497;-67
2022/01/19 08:23:52;;;;;;;1.57;1.50;;;1.00;98.00;;;;;;5110627;28;20462;-68
2022/01/19 08:26:19;;;;;;;1.40;1.40;;;1.10;98.00;;;;;;5087936;28;20627;-66
2022/01/19 08:28:47;;;;;;;1.43;1.37;;;1.20;98.00;;;;;;5106910;28;20454;-66
2022/01/19 08:31:14;;;;;;;1.50;1.43;;;1.20;98.00;;;;;;5098370;28;20486;-67
2022/01/19 08:33:41;;;;;;;1.50;1.40;;;1.20;98.00;;;;;;5100130;28;20532;-67
2022/01/19 08:36:08;;;;;;;1.50;1.40;;;1.30;98.00;;;;;;5097714;28;20803;-67
2022/01/19 08:38:36;;;;;;;1.10;1.03;;;1.30;98.00;;;;;;5098870;28;20506;-67
2022/01/19 08:41:04;;;;;;;1.30;1.30;;;1.20;98.00;;;;;;5099681;28;20583;-66
2022/01/19 08:43:31;;;;;;;1.77;1.67;;;1.30;98.00;;;;;;5097515;28;20483;-67
2022/01/19 08:46:00;;;;;;;1.50;1.40;;;1.40;98.00;;;;;;5099212;28;20511;-67
2022/01/19 08:48:27;;;;;;;1.20;1.17;;;1.50;98.00;;;;;;5107402;28;20467;-68
2022/01/19 08:50:55;;;;;;;1.97;1.70;;;1.50;98.00;;;;;;5100183;28;20489;-68
2022/01/19 08:53:22;;;;;;;2.40;1.80;;;1.50;98.00;;;;;;5100809;28;20516;-67
2022/01/19 08:55:49;;;;;;;1.10;1.10;;;1.40;98.00;;;;;;5104763;28;20518;-66
2022/01/19 08:58:18;;;;;;;1.10;1.10;;;1.60;98.00;;;;;;5100624;28;20491;-66
2022/01/19 09:00:46;;;;;;;1.10;1.00;;;1.80;98.00;;;;;;5105718;28;20529;-66
2022/01/19 09:03:15;;;;;;;1.30;1.23;;;3.80;98.00;;;;;;5091703;28;20464;-67
2022/01/19 09:05:42;;;;;;;1.50;1.43;;;5.20;98.00;;;;;;5096907;28;20487;-66
2022/01/19 09:08:09;;;;;;;1.30;1.20;;;5.30;98.00;;;;;;5107715;28;20479;-67
2022/01/19 09:10:37;;;;;;;1.70;1.43;;;5.10;98.00;;;;;;5106608;28;20456;-67
2022/01/19 09:13:04;;;;;;;1.70;1.60;;;4.60;98.00;;;;;;5098378;28;20864;-66
2022/01/19 09:15:33;;;;;;;1.47;1.30;;;4.30;98.00;;;;;;5092571;28;20492;-66
2022/01/19 09:18:04;;;;;;;2.17;1.40;;;3.90;98.00;;;;;;5089662;28;20457;-67
2022/01/19 09:20:31;;;;;;;2.40;1.60;;;3.60;98.00;;;;;;5089936;28;20555;-68
2022/01/19 09:22:59;;;;;;;1.20;1.10;;;3.20;98.00;;;;;;5107985;28;20483;-67
2022/01/19 09:25:26;;;;;;;2.70;2.13;;;3.10;98.00;;;;;;5115314;28;20502;-66
2022/01/19 09:27:53;;;;;;;1.20;1.00;;;2.90;98.00;;;;;;5115446;28;20455;-66
2022/01/19 09:30:24;;;;;;;1.40;1.30;;;2.70;98.00;;;;;;5115406;28;20543;-66
2022/01/19 09:33:06;;;;;;;2.53;2.33;;;2.60;98.00;;;;;;5115059;28;20516;-67
2022/01/19 09:35:49;;;;;;;1.20;1.10;;;2.60;98.00;;;;;;5115316;28;20929;-66
2022/01/19 09:38:17;;;;;;;1.20;1.00;;;2.80;98.00;;;;;;5115237;28;20454;-66
2022/01/19 09:40:44;;;;;;;3.50;2.60;;;2.80;98.00;;;;;;5115325;28;20511;-67
2022/01/19 09:43:11;;;;;;;1.30;1.20;;;2.80;98.00;;;;;;5114940;28;20451;-67
2022/01/19 09:45:38;;;;;;;1.17;1.10;;;3.00;98.00;;;;;;5115103;28;20901;-67
2022/01/19 09:48:07;;;;;;;1.30;1.20;;;3.00;98.00;;;;;;5114806;28;20497;-67
2022/01/19 09:50:35;;;;;;;1.97;1.73;;;3.00;98.00;;;;;;5114940;28;20497;-67
2022/01/19 09:53:05;;;;;;;1.60;1.30;;;3.10;98.00;;;;;;5115098;28;20982;-66
2022/01/19 09:55:32;;;;;;;2.30;2.10;;;3.10;98.00;;;;;;5115029;28;20592;-66
2022/01/19 09:57:59;;;;;;;2.07;1.93;;;3.20;98.00;;;;;;5114850;28;20494;-67
2022/01/19 10:00:29;;;;;;;1.87;1.20;;;3.40;98.00;;;;;;5114820;28;20514;-67
2022/01/19 10:03:13;;;;;;;1.20;1.10;;;3.40;98.00;;;;;;5114512;28;20491;-67
2022/01/19 10:06:05;;;;;;;1.30;1.10;;;3.50;98.00;;;;;;5115042;28;20508;-66
2022/01/19 10:08:35;;;;;;;2.03;1.87;;;3.40;98.00;;;;;;5113406;28;20459;-66
2022/01/19 10:11:20;;;;;;;1.10;1.00;;;3.60;98.00;;;;;;5114638;28;20507;-66
2022/01/19 10:19:23;;;;;;;1.73;1.30;;;3.60;98.00;;;;;;5114655;28;20446;-66
2022/01/19 10:21:59;;;;;;;1.43;1.30;;;3.60;98.00;;;;;;5114589;28;20483;-67
2022/01/19 10:24:50;;;;;;;1.30;1.27;;;3.80;98.00;;;;;;5114303;28;20511;-66
2022/01/19 10:27:28;;;;;;;1.20;1.00;;;4.00;98.00;;;;;;5114317;28;20941;-65
2022/01/19 10:30:11;;;;;;;2.73;2.03;;;3.90;98.00;;;;;;5113099;28;20538;-67
2022/01/19 10:32:41;;;;;;;1.67;1.20;;;3.90;98.00;;;;;;5114035;28;20491;-66
2022/01/19 10:35:18;;;;;;;1.70;1.13;;;4.00;98.00;;;;;;5100347;28;20455;-66
2022/01/19 10:37:47;;;;;;;1.30;1.10;;;4.00;98.00;;;;;;5073378;28;20460;-66
2022/01/19 10:40:19;;;;;;;1.80;1.70;;;4.10;98.00;;;;;;5073334;28;20523;-66
2022/01/19 10:42:47;;;;;;;2.17;1.77;;;4.20;98.00;;;;;;5073113;28;20453;-67
2022/01/19 10:45:16;;;;;;;1.20;1.10;;;4.30;98.00;;;;;;5071684;28;20539;-66
2022/01/19 10:47:50;;;;;;;1.60;1.20;;;4.50;98.00;;;;;;5073049;28;20514;-66
2022/01/19 10:50:23;;;;;;;1.50;1.40;;;4.60;98.00;;;;;;5071278;28;20477;-66
2022/01/19 10:52:53;;;;;;;2.23;1.73;;;4.70;98.00;;;;;;5072797;28;20445;-66
2022/01/19 10:55:31;;;;;;;1.70;1.47;;;4.80;98.00;;;;;;5071421;28;20457;-66
2022/01/19 10:57:59;;;;;;;1.30;1.20;;;5.00;98.00;;;;;;5072238;28;20536;-65
2022/01/19 11:00:31;;;;;;;2.00;1.80;;;5.00;98.00;;;;;;5071987;28;20830;-65
2022/01/19 11:03:13;;;;;;;2.83;1.70;;;5.10;98.00;;;;;;5072294;28;20883;-66
2022/01/19 11:05:45;;;;;;;1.20;1.17;;;5.10;98.00;;;;;;5069969;28;20510;-65
2022/01/19 11:08:14;;;;;;;1.50;1.17;;;5.30;98.00;;;;;;5072094;28;20489;-65
2022/01/19 11:10:47;;;;;;;1.40;1.10;;;5.40;98.00;;;;;;5071856;28;20457;-66
2022/01/19 11:13:17;;;;;;;1.20;1.00;;;5.40;98.00;;;;;;5072719;28;20453;-66
2022/01/19 11:15:44;;;;;;;1.27;1.23;;;5.60;98.00;;;;;;5071848;28;20460;-66
2022/01/19 11:18:11;;;;;;;2.40;2.20;;;5.80;98.00;;;;;;5072170;28;20861;-66
2022/01/19 11:20:45;;;;;;;1.20;1.20;;;5.90;98.00;;;;;;5072013;28;20480;-66
2022/01/19 11:23:24;;;;;;;1.80;1.17;;;6.00;98.00;;;;;;5071867;28;20465;-66
2022/01/19 11:25:58;;;;;;;1.20;1.03;;;6.00;98.00;;;;;;5074431;28;20973;-65
2022/01/19 11:28:33;;;;;;;1.50;1.10;;;6.10;98.00;;;;;;5073979;28;21102;-66
2022/01/19 11:31:01;;;;;;;1.20;1.10;;;6.20;98.00;;;;;;5071561;28;20453;-66
2022/01/19 11:33:30;;;;;;;1.30;1.27;;;6.30;98.00;;;;;;5071602;28;20515;-66
2022/01/19 11:36:01;;;;;;;1.20;1.10;;;6.60;98.00;;;;;;5070356;28;20462;-66
2022/01/19 11:38:41;;;;;;;1.23;1.10;;;6.70;98.00;;;;;;5072203;28;20454;-66
2022/01/19 11:41:42;;;;;;;1.20;1.00;;;6.80;98.00;;;;;;5071733;28;20482;-65
2022/01/19 11:44:13;;;;;;;1.97;1.30;;;7.10;98.00;;;;;;5029634;28;20512;-66
2022/01/19 11:46:43;;;;;;;1.30;1.10;;;7.10;98.00;;;;;;5012526;28;20569;-66
2022/01/19 11:49:13;;;;;;;1.20;1.10;;;7.20;98.00;;;;;;5050279;28;20446;-65
2022/01/19 11:51:43;;;;;;;1.40;1.30;;;7.30;98.00;;;;;;5071011;28;20554;-66
2022/01/19 11:54:19;;;;;;;1.20;1.13;;;7.40;98.00;;;;;;5071213;28;20952;-66
2022/01/19 11:57:10;;;;;;;1.40;1.30;;;7.50;98.00;;;;;;5071083;28;20470;-66
2022/01/19 12:00:18;;;;;;;1.20;1.03;;;7.60;98.00;;;;;;5071264;28;20965;-65
2022/01/19 12:02:51;;;;;;;1.40;1.33;;;7.80;98.00;;;;;;5028410;28;20533;-65
2022/01/19 12:05:25;;;;;;;1.30;1.10;;;7.80;98.00;;;;;;5065902;28;20449;-66
2022/01/19 12:07:58;;;;;;;3.00;1.40;;;8.00;98.00;;;;;;5071365;28;20873;-66
2022/01/19 12:10:47;;;;;;;2.07;1.40;;;8.10;98.00;;;;;;5071392;28;20488;-66
2022/01/19 12:13:32;;;;;;;1.77;1.30;;;8.20;98.00;;;;;;5072456;28;20537;-66
2022/01/19 12:16:02;;;;;;;1.70;1.47;;;8.30;98.00;;;;;;5071073;28;21367;-65
2022/01/19 12:18:48;;;;;;;1.40;1.30;;;8.40;98.00;;;;;;5071725;28;20456;-66
2022/01/19 12:21:36;;;;;;;1.30;1.20;;;8.70;98.00;;;;;;5071497;28;20516;-66
2022/01/19 12:24:22;;;;;;;1.30;1.20;;;8.70;98.00;;;;;;5072085;28;20497;-66
2022/01/19 12:26:51;;;;;;;1.30;1.17;;;8.90;98.00;;;;;;5070058;28;20550;-66
2022/01/19 12:29:40;;;;;;;1.63;1.37;;;8.90;98.00;;;;;;5070978;28;20493;-66
2022/01/19 12:32:09;;;;;;;2.20;1.73;;;9.10;98.00;;;;;;5071031;28;20490;-66
2022/01/19 12:34:44;;;;;;;1.20;1.10;;;9.20;98.00;;;;;;5070867;28;20977;-66
2022/01/19 12:37:13;;;;;;;1.40;1.30;;;9.40;98.00;;;;;;5069761;28;20850;-66
2022/01/19 12:39:44;;;;;;;1.43;1.43;;;9.50;98.00;;;;;;5070761;28;20512;-66
2022/01/19 12:42:16;;;;;;;2.13;1.50;;;9.30;98.00;;;;;;5070743;28;20515;-66
2022/01/19 12:44:50;;;;;;;1.20;1.10;;;9.30;98.00;;;;;;5071054;28;20452;-66
2022/01/19 12:47:51;;;;;;;1.20;1.00;;;9.30;98.00;;;;;;5070652;28;20529;-66
2022/01/19 12:50:42;;;;;;;1.83;1.33;;;10.00;98.00;;;;;;5008551;28;20457;-66
2022/01/19 12:53:22;;;;;;;1.40;1.17;;;11.20;98.00;;;;;;5008567;28;21049;-66
2022/01/19 12:55:57;;;;;;;2.27;1.50;;;11.80;95.60;;;;;;5051867;28;20484;-66
2022/01/19 12:58:27;;;;;;;3.30;1.70;;;11.50;94.70;;;;;;5073358;28;20549;-66
2022/01/19 13:00:57;;;;;;;1.40;1.30;;;11.20;95.40;;;;;;5081792;28;20563;-67
2022/01/19 13:03:29;;;;;;;2.33;1.83;;;10.90;95.70;;;;;;5095023;28;20517;-67
2022/01/19 13:06:01;;;;;;;1.50;1.47;;;10.80;95.90;;;;;;5094804;28;20492;-67
2022/01/19 13:08:35;;;;;;;1.90;1.20;;;10.60;95.70;;;;;;5095178;28;20475;-66
2022/01/19 13:11:22;;;;;;;1.50;1.30;;;10.60;96.20;;;;;;5094853;28;20467;-66
2022/01/19 13:13:54;;;;;;;1.30;1.20;;;10.60;95.70;;;;;;5093664;28;20451;-67
2022/01/19 13:16:36;;;;;;;1.30;1.30;;;10.60;95.70;;;;;;5094629;28;20484;-66
2022/01/19 13:19:16;;;;;;;1.53;1.47;;;10.50;95.60;;;;;;5094650;28;20483;-67
2022/01/19 13:21:45;;;;;;;5.00;1.30;;;10.30;96.40;;;;;;5094367;28;20482;-66
2022/01/19 13:24:17;;;;;;;2.30;1.50;;;10.30;96.10;;;;;;5094426;28;20979;-67
2022/01/19 13:26:50;;;;;;;1.50;1.33;;;10.00;95.80;;;;;;5094296;28;20453;-67
2022/01/19 13:29:23;;;;;;;1.43;1.20;;;9.50;96.70;;;;;;5094463;28;20491;-66
2022/01/19 13:32:12;;;;;;;1.60;1.50;;;8.90;98.00;;;;;;5094258;28;20506;-67
2022/01/19 13:35:04;;;;;;;1.40;1.30;;;8.50;98.00;;;;;;5094381;28;20464;-67
2022/01/19 13:37:33;;;;;;;1.63;1.57;;;8.10;98.00;;;;;;5083873;28;20462;-67
2022/01/19 13:40:05;;;;;;;1.50;1.40;;;7.90;98.00;;;;;;5094133;28;20549;-67
2022/01/19 13:42:58;;;;;;;1.90;1.80;;;7.70;98.00;;;;;;5094136;28;20570;-67
2022/01/19 13:45:30;;;;;;;1.30;1.17;;;7.50;98.00;;;;;;5093947;28;20455;-67
2022/01/19 13:48:20;;;;;;;1.57;1.47;;;7.40;98.00;;;;;;5094118;28;20466;-67
2022/01/19 13:50:48;;;;;;;1.40;1.23;;;7.20;98.00;;;;;;5093979;28;20453;-68
2022/01/19 13:53:17;;;;;;;1.20;1.00;;;7.10;98.00;;;;;;5094004;28;20545;-67
2022/01/19 13:55:44;;;;;;;1.70;1.10;;;7.00;98.00;;;;;;5093775;28;20480;-66
2022/01/19 13:58:15;;;;;;;1.20;1.00;;;7.00;98.00;;;;;;5093921;28;20467;-66
2022/01/19 14:00:50;;;;;;;2.60;1.47;;;7.00;98.00;;;;;;5092625;28;20446;-67
2022/01/19 14:03:19;;;;;;;2.60;1.60;;;7.00;98.00;;;;;;5093808;28;20484;-67
2022/01/19 14:05:47;;;;;;;1.90;1.40;;;6.90;98.00;;;;;;5093644;28;20476;-67
2022/01/19 14:08:15;;;;;;;1.83;1.20;;;7.00;98.00;;;;;;5093571;28;20532;-67
2022/01/19 14:10:48;;;;;;;1.30;1.10;;;7.00;98.00;;;;;;5093698;28;21040;-66
2022/01/19 14:13:26;;;;;;;1.20;1.00;;;6.90;98.00;;;;;;5093620;28;20496;-67
2022/01/19 14:15:53;;;;;;;1.30;1.20;;;6.80;98.00;;;;;;5093486;28;20463;-67
2022/01/19 14:18:20;;;;;;;1.63;1.50;;;6.80;98.00;;;;;;5093495;28;20542;-67
2022/01/19 14:21:05;;;;;;;1.63;1.30;;;6.80;98.00;;;;;;5093257;28;20822;-67
2022/01/19 14:23:32;;;;;;;1.37;1.20;;;6.90;98.00;;;;;;5092282;28;20468;-66
2022/01/19 14:26:07;;;;;;;1.60;1.20;;;6.90;98.00;;;;;;5093305;28;20560;-66
2022/01/19 14:28:38;;;;;;;3.43;1.33;;;7.00;98.00;;;;;;5093299;28;20500;-67